PWSweather.com
Personal Weather Stations
Station Observations
KCAEXETE14
Park Place, Exeter, CA 93221

Park PlaceExeter, CA 93221

Lat: 36.283487, Lon: -119.152218

Elevation: 380

Station Type: Davis Vantage Vue

http://weather.manyjourneys.com/

High Low Average
Temperature 73.0°F22.8°C 51.0°F10.6°C 61.5°F16.4°C
Dew Point 57.3°F14.1°C 47.3°F8.5°C 52.5°F11.4°C
Winds 2.3 mph 3.7 kmh Calm Calm Calm SWCalm SW
Wind Gusts 4.6 mph7.4 kmh -- 1.0 mph1.6 kmh
Humidity 94% 54% 74%
Pressure 30.13 in1020.3 mb 30.02 in1016.6 mb -
Precipitation 0.00 in0.0 mm - -
Hour Temp Dew Point Humidity Winds Wind Gusts Pressure Precip Precip Rate Daily Precip Total
12:00 AM 57.9°F14.4°C 54.0°F12.2°C 87% Calm Calm -- 30.05 in1017.6 mb - 0.00 in0.0 mm 0.00 in0.0 mm
12:05 AM 57.9°F14.4°C 54.1°F12.3°C 87% Calm Calm -- 30.05 in1017.6 mb - 0.00 in0.0 mm 0.00 in0.0 mm
12:10 AM 57.9°F14.4°C 54.1°F12.3°C 87% Calm Calm -- 30.05 in1017.6 mb - 0.00 in0.0 mm 0.00 in0.0 mm
12:15 AM 57.7°F14.3°C 53.9°F12.2°C 87% Calm Calm -- 30.05 in1017.6 mb - 0.00 in0.0 mm 0.00 in0.0 mm
12:20 AM 57.6°F14.2°C 53.8°F12.1°C 87% Calm Calm -- 30.05 in1017.6 mb - 0.00 in0.0 mm 0.00 in0.0 mm
12:25 AM 57.5°F14.2°C 53.7°F12.1°C 87% Calm Calm -- 30.05 in1017.6 mb - 0.00 in0.0 mm 0.00 in0.0 mm
12:30 AM 57.2°F14.0°C 53.4°F11.9°C 87% Calm Calm -- 30.05 in1017.6 mb - 0.00 in0.0 mm 0.00 in0.0 mm
12:35 AM 56.9°F13.8°C 53.0°F11.7°C 87% Calm Calm -- 30.05 in1017.6 mb - 0.00 in0.0 mm 0.00 in0.0 mm
12:40 AM 56.6°F13.7°C 52.7°F11.5°C 87% Calm Calm -- 30.05 in1017.6 mb - 0.00 in0.0 mm 0.00 in0.0 mm
12:45 AM 56.2°F13.4°C 52.7°F11.5°C 88% Calm Calm -- 30.05 in1017.6 mb - 0.00 in0.0 mm 0.00 in0.0 mm
12:50 AM 56.0°F13.3°C 52.5°F11.4°C 88% Calm Calm -- 30.05 in1017.6 mb - 0.00 in0.0 mm 0.00 in0.0 mm
12:55 AM 55.8°F13.2°C 52.6°F11.4°C 89% Calm Calm -- 30.05 in1017.6 mb - 0.00 in0.0 mm 0.00 in0.0 mm
01:00 AM 55.8°F13.2°C 52.6°F11.4°C 89% Calm Calm -- 30.05 in1017.6 mb - 0.00 in0.0 mm 0.00 in0.0 mm
01:05 AM 55.8°F13.2°C 52.6°F11.4°C 89% Calm Calm -- 30.05 in1017.6 mb - 0.00 in0.0 mm 0.00 in0.0 mm
01:10 AM 55.8°F13.2°C 52.6°F11.4°C 89% Calm Calm -- 30.05 in1017.6 mb - 0.00 in0.0 mm 0.00 in0.0 mm
01:15 AM 55.8°F13.2°C 52.6°F11.4°C 89% Calm Calm -- 30.04 in1017.3 mb - 0.00 in0.0 mm 0.00 in0.0 mm
01:20 AM 55.7°F13.2°C 52.5°F11.4°C 89% Calm Calm -- 30.05 in1017.6 mb - 0.00 in0.0 mm 0.00 in0.0 mm
01:25 AM 55.3°F12.9°C 51.8°F11.0°C 88% Calm Calm -- 30.05 in1017.6 mb - 0.00 in0.0 mm 0.00 in0.0 mm
01:30 AM 54.9°F12.7°C 51.5°F10.8°C 88% Calm Calm -- 30.05 in1017.6 mb - 0.00 in0.0 mm 0.00 in0.0 mm
01:35 AM 54.6°F12.6°C 51.1°F10.6°C 88% Calm Calm -- 30.05 in1017.6 mb - 0.00 in0.0 mm 0.00 in0.0 mm
01:40 AM 54.6°F12.6°C 51.4°F10.8°C 89% Calm Calm -- 30.05 in1017.6 mb - 0.00 in0.0 mm 0.00 in0.0 mm
01:45 AM 54.5°F12.5°C 51.3°F10.7°C 89% Calm Calm -- 30.05 in1017.6 mb - 0.00 in0.0 mm 0.00 in0.0 mm
01:50 AM 54.5°F12.5°C 51.3°F10.7°C 89% Calm Calm -- 30.05 in1017.6 mb - 0.00 in0.0 mm 0.00 in0.0 mm
01:55 AM 54.4°F12.4°C 51.2°F10.7°C 89% Calm Calm -- 30.06 in1017.9 mb - 0.00 in0.0 mm 0.00 in0.0 mm
02:00 AM 54.3°F12.4°C 51.1°F10.6°C 89% Calm Calm -- 30.06 in1017.9 mb - 0.00 in0.0 mm 0.00 in0.0 mm
02:05 AM 54.3°F12.4°C 51.1°F10.6°C 89% Calm Calm -- 30.06 in1017.9 mb - 0.00 in0.0 mm 0.00 in0.0 mm
02:10 AM 54.2°F12.3°C 51.0°F10.6°C 89% Calm Calm -- 30.06 in1017.9 mb - 0.00 in0.0 mm 0.00 in0.0 mm
02:15 AM 54.1°F12.3°C 50.9°F10.5°C 89% Calm Calm -- 30.06 in1017.9 mb - 0.00 in0.0 mm 0.00 in0.0 mm
02:20 AM 54.1°F12.3°C 50.9°F10.5°C 89% Calm Calm -- 30.06 in1017.9 mb - 0.00 in0.0 mm 0.00 in0.0 mm
02:25 AM 54.2°F12.3°C 51.0°F10.6°C 89% Calm Calm -- 30.06 in1017.9 mb - 0.00 in0.0 mm 0.00 in0.0 mm
02:30 AM 54.2°F12.3°C 51.0°F10.6°C 89% Calm Calm -- 30.07 in1018.3 mb - 0.00 in0.0 mm 0.00 in0.0 mm
02:35 AM 54.2°F12.3°C 51.0°F10.6°C 89% Calm Calm -- 30.07 in1018.3 mb - 0.00 in0.0 mm 0.00 in0.0 mm
02:40 AM 54.1°F12.3°C 50.9°F10.5°C 89% Calm Calm -- 30.07 in1018.3 mb - 0.00 in0.0 mm 0.00 in0.0 mm
02:45 AM 54.1°F12.3°C 51.2°F10.7°C 90% Calm Calm -- 30.07 in1018.3 mb - 0.00 in0.0 mm 0.00 in0.0 mm
02:50 AM 54.3°F12.4°C 51.4°F10.8°C 90% Calm Calm -- 30.07 in1018.3 mb - 0.00 in0.0 mm 0.00 in0.0 mm
02:55 AM 54.4°F12.4°C 51.2°F10.7°C 89% Calm Calm -- 30.07 in1018.3 mb - 0.00 in0.0 mm 0.00 in0.0 mm
03:00 AM 54.3°F12.4°C 51.1°F10.6°C 89% Calm Calm -- 30.07 in1018.3 mb - 0.00 in0.0 mm 0.00 in0.0 mm
03:05 AM 54.3°F12.4°C 51.4°F10.8°C 90% Calm Calm -- 30.07 in1018.3 mb - 0.00 in0.0 mm 0.00 in0.0 mm
03:10 AM 54.3°F12.4°C 51.5°F10.8°C 90% Calm Calm -- 30.07 in1018.3 mb - 0.00 in0.0 mm 0.00 in0.0 mm
03:15 AM 54.3°F12.4°C 51.4°F10.8°C 90% Calm Calm -- 30.07 in1018.3 mb - 0.00 in0.0 mm 0.00 in0.0 mm
03:20 AM 54.2°F12.3°C 51.3°F10.7°C 90% Calm Calm -- 30.07 in1018.3 mb - 0.00 in0.0 mm 0.00 in0.0 mm
03:25 AM 54.0°F12.2°C 51.1°F10.6°C 90% Calm Calm -- 30.07 in1018.3 mb - 0.00 in0.0 mm 0.00 in0.0 mm
03:30 AM 53.9°F12.2°C 51.0°F10.6°C 90% Calm Calm -- 30.06 in1017.9 mb - 0.00 in0.0 mm 0.00 in0.0 mm
03:35 AM 53.9°F12.2°C 51.1°F10.6°C 90% Calm Calm -- 30.06 in1017.9 mb - 0.00 in0.0 mm 0.00 in0.0 mm
03:40 AM 53.6°F12.0°C 50.4°F10.2°C 89% Calm Calm -- 30.06 in1017.9 mb - 0.00 in0.0 mm 0.00 in0.0 mm
03:45 AM 53.3°F11.8°C 50.4°F10.2°C 90% Calm Calm -- 30.06 in1017.9 mb - 0.00 in0.0 mm 0.00 in0.0 mm
03:50 AM 53.2°F11.8°C 50.3°F10.2°C 90% Calm Calm -- 30.06 in1017.9 mb - 0.00 in0.0 mm 0.00 in0.0 mm
03:55 AM 52.9°F11.6°C 50.0°F10.0°C 90% Calm Calm -- 30.06 in1017.9 mb - 0.00 in0.0 mm 0.00 in0.0 mm
04:00 AM 52.8°F11.6°C 50.2°F10.1°C 91% Calm Calm -- 30.06 in1017.9 mb - 0.00 in0.0 mm 0.00 in0.0 mm
04:05 AM 52.7°F11.5°C 50.1°F10.1°C 91% Calm Calm -- 30.06 in1017.9 mb - 0.00 in0.0 mm 0.00 in0.0 mm
04:10 AM 52.6°F11.4°C 50.1°F10.1°C 91% Calm Calm -- 30.06 in1017.9 mb - 0.00 in0.0 mm 0.00 in0.0 mm
04:15 AM 52.6°F11.4°C 50.3°F10.2°C 92% Calm Calm -- 30.06 in1017.9 mb - 0.00 in0.0 mm 0.00 in0.0 mm
04:20 AM 52.4°F11.3°C 49.8°F9.9°C 91% Calm Calm -- 30.06 in1017.9 mb - 0.00 in0.0 mm 0.00 in0.0 mm
04:25 AM 51.9°F11.1°C 49.3°F9.6°C 91% Calm Calm -- 30.06 in1017.9 mb - 0.00 in0.0 mm 0.00 in0.0 mm
04:30 AM 51.5°F10.8°C 49.0°F9.4°C 91% Calm Calm -- 30.06 in1017.9 mb - 0.00 in0.0 mm 0.00 in0.0 mm
04:35 AM 51.3°F10.7°C 49.1°F9.5°C 92% Calm Calm -- 30.06 in1017.9 mb - 0.00 in0.0 mm 0.00 in0.0 mm
04:40 AM 51.2°F10.7°C 49.0°F9.4°C 92% Calm Calm -- 30.06 in1017.9 mb - 0.00 in0.0 mm 0.00 in0.0 mm
04:45 AM 51.1°F10.6°C 48.9°F9.4°C 92% Calm Calm -- 30.06 in1017.9 mb - 0.00 in0.0 mm 0.00 in0.0 mm
04:50 AM 51.1°F10.6°C 48.9°F9.4°C 92% Calm Calm -- 30.07 in1018.3 mb - 0.00 in0.0 mm 0.00 in0.0 mm
04:55 AM 51.0°F10.6°C 48.8°F9.3°C 92% Calm Calm -- 30.07 in1018.3 mb - 0.00 in0.0 mm 0.00 in0.0 mm
05:00 AM 51.0°F10.6°C 48.8°F9.3°C 92% Calm Calm -- 30.07 in1018.3 mb - 0.00 in0.0 mm 0.00 in0.0 mm
05:05 AM 51.0°F10.6°C 49.0°F9.4°C 93% Calm Calm -- 30.07 in1018.3 mb - 0.00 in0.0 mm 0.00 in0.0 mm
05:10 AM 51.1°F10.6°C 49.1°F9.5°C 93% Calm Calm 1.2 mph1.9 kmh 30.07 in1018.3 mb - 0.00 in0.0 mm 0.00 in0.0 mm
05:15 AM 51.3°F10.7°C 49.3°F9.6°C 93% Calm Calm -- 30.07 in1018.3 mb - 0.00 in0.0 mm 0.00 in0.0 mm
05:20 AM 51.4°F10.8°C 49.4°F9.7°C 93% Calm Calm -- 30.07 in1018.3 mb - 0.00 in0.0 mm 0.00 in0.0 mm
05:25 AM 51.4°F10.8°C 49.4°F9.7°C 93% Calm Calm -- 30.08 in1018.6 mb - 0.00 in0.0 mm 0.00 in0.0 mm
05:30 AM 51.3°F10.7°C 49.3°F9.6°C 93% Calm Calm -- 30.08 in1018.6 mb - 0.00 in0.0 mm 0.00 in0.0 mm
05:35 AM 51.3°F10.7°C 49.3°F9.6°C 93% Calm Calm -- 30.08 in1018.6 mb - 0.00 in0.0 mm 0.00 in0.0 mm
05:40 AM 51.3°F10.7°C 49.3°F9.6°C 93% Calm Calm -- 30.08 in1018.6 mb - 0.00 in0.0 mm 0.00 in0.0 mm
05:45 AM 51.3°F10.7°C 49.3°F9.6°C 93% Calm Calm -- 30.08 in1018.6 mb - 0.00 in0.0 mm 0.00 in0.0 mm
05:50 AM 51.3°F10.7°C 49.3°F9.6°C 93% Calm Calm -- 30.08 in1018.6 mb - 0.00 in0.0 mm 0.00 in0.0 mm
05:55 AM 51.3°F10.7°C 49.3°F9.6°C 93% Calm Calm -- 30.09 in1019.0 mb - 0.00 in0.0 mm 0.00 in0.0 mm
06:00 AM 51.3°F10.7°C 49.3°F9.6°C 93% Calm Calm -- 30.09 in1019.0 mb - 0.00 in0.0 mm 0.00 in0.0 mm
06:05 AM 51.2°F10.7°C 49.2°F9.6°C 93% Calm Calm -- 30.09 in1019.0 mb - 0.00 in0.0 mm 0.00 in0.0 mm
06:10 AM 51.1°F10.6°C 49.1°F9.5°C 93% Calm Calm -- 30.09 in1019.0 mb - 0.00 in0.0 mm 0.00 in0.0 mm
06:15 AM 51.1°F10.6°C 49.1°F9.5°C 93% Calm Calm 1.2 mph1.9 kmh 30.09 in1019.0 mb - 0.00 in0.0 mm 0.00 in0.0 mm
06:20 AM 51.0°F10.6°C 49.3°F9.6°C 94% Calm Calm 1.2 mph1.9 kmh 30.09 in1019.0 mb - 0.00 in0.0 mm 0.00 in0.0 mm
06:25 AM 51.0°F10.6°C 49.3°F9.6°C 94% Calm Calm 1.2 mph1.9 kmh 30.09 in1019.0 mb - 0.00 in0.0 mm 0.00 in0.0 mm
09:30 AM 60.7°F15.9°C 54.4°F12.4°C 80% Calm Calm 1.2 mph1.9 kmh 30.13 in1020.3 mb - 0.00 in0.0 mm 0.00 in0.0 mm
09:35 AM 60.6°F15.9°C 54.4°F12.4°C 80% Calm Calm -- 30.13 in1020.3 mb - 0.00 in0.0 mm 0.00 in0.0 mm
09:40 AM 61.0°F16.1°C 54.4°F12.4°C 79% Calm Calm 1.2 mph1.9 kmh 30.13 in1020.3 mb - 0.00 in0.0 mm 0.00 in0.0 mm
09:45 AM 61.5°F16.4°C 54.6°F12.6°C 78% Calm Calm 1.2 mph1.9 kmh 30.13 in1020.3 mb - 0.00 in0.0 mm 0.00 in0.0 mm
09:50 AM 62.2°F16.8°C 54.9°F12.7°C 77% Calm Calm 1.2 mph1.9 kmh 30.13 in1020.3 mb - 0.00 in0.0 mm 0.00 in0.0 mm
09:55 AM 62.6°F17.0°C 55.0°F12.8°C 76% Calm Calm 1.2 mph1.9 kmh 30.13 in1020.3 mb - 0.00 in0.0 mm 0.00 in0.0 mm
10:00 AM 62.9°F17.2°C 54.9°F12.7°C 75% 1.2 mph SE1.9 kmh SE 3.5 mph5.6 kmh 30.13 in1020.3 mb - 0.00 in0.0 mm 0.00 in0.0 mm
10:05 AM 63.0°F17.2°C 55.0°F12.8°C 75% 1.2 mph S1.9 kmh S 2.3 mph3.7 kmh 30.13 in1020.3 mb - 0.00 in0.0 mm 0.00 in0.0 mm
10:10 AM 63.6°F17.6°C 55.2°F12.9°C 74% 1.2 mph SSE1.9 kmh SSE 3.5 mph5.6 kmh 30.13 in1020.3 mb - 0.00 in0.0 mm 0.00 in0.0 mm
10:15 AM 64.0°F17.8°C 55.5°F13.1°C 74% Calm Calm 2.3 mph3.7 kmh 30.13 in1020.3 mb - 0.00 in0.0 mm 0.00 in0.0 mm
10:20 AM 64.2°F17.9°C 55.0°F12.8°C 72% 1.2 mph S1.9 kmh S 3.5 mph5.6 kmh 30.13 in1020.3 mb - 0.00 in0.0 mm 0.00 in0.0 mm
10:25 AM 64.5°F18.1°C 55.3°F12.9°C 72% 1.2 mph ESE1.9 kmh ESE 2.3 mph3.7 kmh 30.13 in1020.3 mb - 0.00 in0.0 mm 0.00 in0.0 mm
10:30 AM 64.6°F18.1°C 55.0°F12.8°C 71% 1.2 mph SE1.9 kmh SE 3.5 mph5.6 kmh 30.12 in1020.0 mb - 0.00 in0.0 mm 0.00 in0.0 mm
10:35 AM 64.6°F18.1°C 55.0°F12.8°C 71% 1.2 mph SSE1.9 kmh SSE 3.5 mph5.6 kmh 30.12 in1020.0 mb - 0.00 in0.0 mm 0.00 in0.0 mm
10:40 AM 65.0°F18.3°C 55.3°F12.9°C 71% 2.3 mph SE3.7 kmh SE 3.5 mph5.6 kmh 30.12 in1020.0 mb - 0.00 in0.0 mm 0.00 in0.0 mm
10:45 AM 65.1°F18.4°C 55.1°F12.8°C 70% Calm Calm -- 30.12 in1020.0 mb - 0.00 in0.0 mm 0.00 in0.0 mm
10:50 AM 65.5°F18.6°C 55.8°F13.2°C 71% Calm Calm 2.3 mph3.7 kmh 30.12 in1020.0 mb - 0.00 in0.0 mm 0.00 in0.0 mm
10:55 AM 65.9°F18.8°C 55.0°F12.8°C 68% Calm Calm -- 30.13 in1020.3 mb - 0.00 in0.0 mm 0.00 in0.0 mm
11:00 AM 65.9°F18.8°C 55.0°F12.8°C 68% 1.2 mph S1.9 kmh S 3.5 mph5.6 kmh 30.13 in1020.3 mb - 0.00 in0.0 mm 0.00 in0.0 mm
11:05 AM 65.9°F18.8°C 55.0°F12.8°C 68% 1.2 mph ESE1.9 kmh ESE 2.3 mph3.7 kmh 30.13 in1020.3 mb - 0.00 in0.0 mm 0.00 in0.0 mm
11:10 AM 66.0°F18.9°C 54.7°F12.6°C 67% Calm Calm 1.2 mph1.9 kmh 30.13 in1020.3 mb - 0.00 in0.0 mm 0.00 in0.0 mm
11:15 AM 66.0°F18.9°C 54.3°F12.4°C 66% Calm Calm 2.3 mph3.7 kmh 30.13 in1020.3 mb - 0.00 in0.0 mm 0.00 in0.0 mm
11:20 AM 66.5°F19.2°C 54.8°F12.7°C 66% 1.2 mph ESE1.9 kmh ESE 2.3 mph3.7 kmh 30.13 in1020.3 mb - 0.00 in0.0 mm 0.00 in0.0 mm
11:25 AM 66.7°F19.3°C 55.4°F13.0°C 67% Calm Calm 1.2 mph1.9 kmh 30.12 in1020.0 mb - 0.00 in0.0 mm 0.00 in0.0 mm
11:30 AM 66.5°F19.2°C 54.4°F12.4°C 65% Calm Calm 1.2 mph1.9 kmh 30.12 in1020.0 mb - 0.00 in0.0 mm 0.00 in0.0 mm
11:35 AM 66.9°F19.4°C 55.1°F12.8°C 66% Calm Calm 1.2 mph1.9 kmh 30.12 in1020.0 mb - 0.00 in0.0 mm 0.00 in0.0 mm
11:40 AM 67.4°F19.7°C 55.2°F12.9°C 65% 1.2 mph SE1.9 kmh SE 2.3 mph3.7 kmh 30.12 in1020.0 mb - 0.00 in0.0 mm 0.00 in0.0 mm
11:45 AM 67.8°F19.9°C 55.2°F12.9°C 64% Calm Calm 1.2 mph1.9 kmh 30.11 in1019.6 mb - 0.00 in0.0 mm 0.00 in0.0 mm
11:50 AM 67.9°F19.9°C 55.7°F13.2°C 65% Calm Calm 1.2 mph1.9 kmh 30.11 in1019.6 mb - 0.00 in0.0 mm 0.00 in0.0 mm
11:55 AM 68.0°F20.0°C 55.4°F13.0°C 64% Calm Calm 1.2 mph1.9 kmh 30.11 in1019.6 mb - 0.00 in0.0 mm 0.00 in0.0 mm
12:00 PM 68.3°F20.2°C 54.8°F12.7°C 62% 1.2 mph E1.9 kmh E 2.3 mph3.7 kmh 30.11 in1019.6 mb - 0.00 in0.0 mm 0.00 in0.0 mm
12:05 PM 68.1°F20.1°C 55.5°F13.1°C 64% Calm Calm -- 30.11 in1019.6 mb - 0.00 in0.0 mm 0.00 in0.0 mm
12:10 PM 68.4°F20.2°C 55.3°F12.9°C 63% Calm Calm 2.3 mph3.7 kmh 30.11 in1019.6 mb - 0.00 in0.0 mm 0.00 in0.0 mm
12:15 PM 69.2°F20.7°C 55.6°F13.1°C 62% 1.2 mph WSW1.9 kmh WSW 1.2 mph1.9 kmh 30.10 in1019.3 mb - 0.00 in0.0 mm 0.00 in0.0 mm
12:20 PM 69.5°F20.8°C 55.4°F13.0°C 61% Calm Calm 1.2 mph1.9 kmh 30.10 in1019.3 mb - 0.00 in0.0 mm 0.00 in0.0 mm
12:25 PM 69.7°F20.9°C 55.2°F12.9°C 60% 1.2 mph ENE1.9 kmh ENE 3.5 mph5.6 kmh 30.10 in1019.3 mb - 0.00 in0.0 mm 0.00 in0.0 mm
12:30 PM 69.6°F20.9°C 55.6°F13.1°C 61% Calm Calm 1.2 mph1.9 kmh 30.09 in1019.0 mb - 0.00 in0.0 mm 0.00 in0.0 mm
12:35 PM 69.6°F20.9°C 56.5°F13.6°C 63% Calm Calm 2.3 mph3.7 kmh 30.09 in1019.0 mb - 0.00 in0.0 mm 0.00 in0.0 mm
12:40 PM 70.4°F21.3°C 56.3°F13.5°C 61% 1.2 mph WSW1.9 kmh WSW 3.5 mph5.6 kmh 30.09 in1019.0 mb - 0.00 in0.0 mm 0.00 in0.0 mm
12:45 PM 70.3°F21.3°C 55.8°F13.2°C 60% Calm Calm 1.2 mph1.9 kmh 30.09 in1019.0 mb - 0.00 in0.0 mm 0.00 in0.0 mm
12:50 PM 70.3°F21.3°C 55.3°F12.9°C 59% Calm Calm 1.2 mph1.9 kmh 30.09 in1019.0 mb - 0.00 in0.0 mm 0.00 in0.0 mm
12:55 PM 70.5°F21.4°C 55.9°F13.3°C 60% Calm Calm 1.2 mph1.9 kmh 30.08 in1018.6 mb - 0.00 in0.0 mm 0.00 in0.0 mm
01:00 PM 70.7°F21.5°C 56.1°F13.4°C 60% 1.2 mph E1.9 kmh E 2.3 mph3.7 kmh 30.08 in1018.6 mb - 0.00 in0.0 mm 0.00 in0.0 mm
01:05 PM 71.1°F21.7°C 56.0°F13.3°C 59% 2.3 mph E3.7 kmh E 4.6 mph7.4 kmh 30.08 in1018.6 mb - 0.00 in0.0 mm 0.00 in0.0 mm
01:10 PM 71.2°F21.8°C 56.1°F13.4°C 59% 1.2 mph ESE1.9 kmh ESE 1.2 mph1.9 kmh 30.08 in1018.6 mb - 0.00 in0.0 mm 0.00 in0.0 mm
01:15 PM 71.3°F21.8°C 55.8°F13.2°C 58% Calm Calm 1.2 mph1.9 kmh 30.07 in1018.3 mb - 0.00 in0.0 mm 0.00 in0.0 mm
01:20 PM 71.2°F21.8°C 56.2°F13.4°C 59% Calm Calm -- 30.07 in1018.3 mb - 0.00 in0.0 mm 0.00 in0.0 mm
01:25 PM 71.7°F22.1°C 56.1°F13.4°C 58% Calm Calm 2.3 mph3.7 kmh 30.07 in1018.3 mb - 0.00 in0.0 mm 0.00 in0.0 mm
01:30 PM 72.1°F22.3°C 56.5°F13.6°C 58% Calm Calm 1.2 mph1.9 kmh 30.07 in1018.3 mb - 0.00 in0.0 mm 0.00 in0.0 mm
01:35 PM 72.0°F22.2°C 55.5°F13.1°C 56% Calm Calm 1.2 mph1.9 kmh 30.06 in1017.9 mb - 0.00 in0.0 mm 0.00 in0.0 mm
01:40 PM 71.8°F22.1°C 56.7°F13.7°C 59% Calm Calm 2.3 mph3.7 kmh 30.06 in1017.9 mb - 0.00 in0.0 mm 0.00 in0.0 mm
01:45 PM 72.3°F22.4°C 56.3°F13.5°C 57% Calm Calm -- 30.06 in1017.9 mb - 0.00 in0.0 mm 0.00 in0.0 mm
01:50 PM 72.7°F22.6°C 56.1°F13.4°C 56% 1.2 mph SSE1.9 kmh SSE 3.5 mph5.6 kmh 30.06 in1017.9 mb - 0.00 in0.0 mm 0.00 in0.0 mm
01:55 PM 72.6°F22.6°C 55.0°F12.8°C 54% Calm Calm -- 30.06 in1017.9 mb - 0.00 in0.0 mm 0.00 in0.0 mm
02:00 PM 72.3°F22.4°C 55.3°F12.9°C 55% Calm Calm 1.2 mph1.9 kmh 30.06 in1017.9 mb - 0.00 in0.0 mm 0.00 in0.0 mm
02:05 PM 72.3°F22.4°C 55.2°F12.9°C 55% 1.2 mph E1.9 kmh E 1.2 mph1.9 kmh 30.05 in1017.6 mb - 0.00 in0.0 mm 0.00 in0.0 mm
02:10 PM 72.4°F22.4°C 55.3°F12.9°C 55% Calm Calm -- 30.05 in1017.6 mb - 0.00 in0.0 mm 0.00 in0.0 mm
02:15 PM 72.9°F22.7°C 55.7°F13.2°C 55% Calm Calm 3.5 mph5.6 kmh 30.05 in1017.6 mb - 0.00 in0.0 mm 0.00 in0.0 mm
02:20 PM 73.0°F22.8°C 55.9°F13.3°C 55% Calm Calm 1.2 mph1.9 kmh 30.05 in1017.6 mb - 0.00 in0.0 mm 0.00 in0.0 mm
02:25 PM 72.8°F22.7°C 56.2°F13.4°C 56% Calm Calm -- 30.05 in1017.6 mb - 0.00 in0.0 mm 0.00 in0.0 mm
02:30 PM 72.4°F22.4°C 55.8°F13.2°C 56% Calm Calm 1.2 mph1.9 kmh 30.05 in1017.6 mb - 0.00 in0.0 mm 0.00 in0.0 mm
02:35 PM 72.2°F22.3°C 56.1°F13.4°C 57% Calm Calm 1.2 mph1.9 kmh 30.05 in1017.6 mb - 0.00 in0.0 mm 0.00 in0.0 mm
02:40 PM 72.3°F22.4°C 55.7°F13.2°C 56% Calm Calm 1.2 mph1.9 kmh 30.05 in1017.6 mb - 0.00 in0.0 mm 0.00 in0.0 mm
02:45 PM 72.7°F22.6°C 56.6°F13.7°C 57% Calm Calm -- 30.05 in1017.6 mb - 0.00 in0.0 mm 0.00 in0.0 mm
02:50 PM 72.3°F22.4°C 55.2°F12.9°C 55% Calm Calm 1.2 mph1.9 kmh 30.05 in1017.6 mb - 0.00 in0.0 mm 0.00 in0.0 mm
02:55 PM 71.7°F22.1°C 55.7°F13.2°C 57% Calm Calm -- 30.05 in1017.6 mb - 0.00 in0.0 mm 0.00 in0.0 mm
03:00 PM 71.4°F21.9°C 56.8°F13.8°C 60% Calm Calm 2.3 mph3.7 kmh 30.05 in1017.6 mb - 0.00 in0.0 mm 0.00 in0.0 mm
03:05 PM 71.1°F21.7°C 56.5°F13.6°C 60% Calm Calm 1.2 mph1.9 kmh 30.05 in1017.6 mb - 0.00 in0.0 mm 0.00 in0.0 mm
03:10 PM 70.8°F21.6°C 56.3°F13.5°C 60% Calm Calm -- 30.05 in1017.6 mb - 0.00 in0.0 mm 0.00 in0.0 mm
03:15 PM 70.5°F21.4°C 56.0°F13.3°C 60% Calm Calm -- 30.05 in1017.6 mb - 0.00 in0.0 mm 0.00 in0.0 mm
03:20 PM 70.4°F21.3°C 56.3°F13.5°C 61% Calm Calm -- 30.04 in1017.3 mb - 0.00 in0.0 mm 0.00 in0.0 mm
03:25 PM 70.3°F21.3°C 56.2°F13.4°C 61% Calm Calm -- 30.04 in1017.3 mb - 0.00 in0.0 mm 0.00 in0.0 mm
03:30 PM 70.3°F21.3°C 56.2°F13.4°C 61% Calm Calm -- 30.04 in1017.3 mb - 0.00 in0.0 mm 0.00 in0.0 mm
03:35 PM 70.3°F21.3°C 56.6°F13.7°C 62% 1.2 mph NW1.9 kmh NW 2.3 mph3.7 kmh 30.04 in1017.3 mb - 0.00 in0.0 mm 0.00 in0.0 mm
03:40 PM 70.1°F21.2°C 56.5°F13.6°C 62% Calm Calm 1.2 mph1.9 kmh 30.04 in1017.3 mb - 0.00 in0.0 mm 0.00 in0.0 mm
03:45 PM 70.0°F21.1°C 56.4°F13.6°C 62% Calm Calm 2.3 mph3.7 kmh 30.03 in1016.9 mb - 0.00 in0.0 mm 0.00 in0.0 mm
03:50 PM 69.9°F21.1°C 55.9°F13.3°C 61% Calm Calm 1.2 mph1.9 kmh 30.03 in1016.9 mb - 0.00 in0.0 mm 0.00 in0.0 mm
03:55 PM 69.9°F21.1°C 55.9°F13.3°C 61% Calm Calm 1.2 mph1.9 kmh 30.03 in1016.9 mb - 0.00 in0.0 mm 0.00 in0.0 mm
04:00 PM 70.0°F21.1°C 56.4°F13.6°C 62% Calm Calm 1.2 mph1.9 kmh 30.04 in1017.3 mb - 0.00 in0.0 mm 0.00 in0.0 mm
04:05 PM 69.9°F21.1°C 56.3°F13.5°C 62% Calm Calm 1.2 mph1.9 kmh 30.03 in1016.9 mb - 0.00 in0.0 mm 0.00 in0.0 mm
04:10 PM 69.8°F21.0°C 56.2°F13.4°C 62% Calm Calm -- 30.03 in1016.9 mb - 0.00 in0.0 mm 0.00 in0.0 mm
04:15 PM 69.8°F21.0°C 56.2°F13.4°C 62% Calm Calm -- 30.03 in1016.9 mb - 0.00 in0.0 mm 0.00 in0.0 mm
04:20 PM 69.8°F21.0°C 56.2°F13.4°C 62% Calm Calm 1.2 mph1.9 kmh 30.03 in1016.9 mb - 0.00 in0.0 mm 0.00 in0.0 mm
04:25 PM 69.8°F21.0°C 57.1°F13.9°C 64% Calm Calm -- 30.03 in1016.9 mb - 0.00 in0.0 mm 0.00 in0.0 mm
04:30 PM 69.7°F20.9°C 57.0°F13.9°C 64% Calm Calm -- 30.04 in1017.3 mb - 0.00 in0.0 mm 0.00 in0.0 mm
04:35 PM 69.6°F20.9°C 57.3°F14.1°C 65% Calm Calm 1.2 mph1.9 kmh 30.03 in1016.9 mb - 0.00 in0.0 mm 0.00 in0.0 mm
04:40 PM 69.2°F20.7°C 55.2°F12.9°C 61% Calm Calm 1.2 mph1.9 kmh 30.03 in1016.9 mb - 0.00 in0.0 mm 0.00 in0.0 mm
04:45 PM 68.8°F20.4°C 54.3°F12.4°C 60% Calm Calm 1.2 mph1.9 kmh 30.03 in1016.9 mb - 0.00 in0.0 mm 0.00 in0.0 mm
04:50 PM 68.5°F20.3°C 54.5°F12.5°C 61% Calm Calm 1.2 mph1.9 kmh 30.03 in1016.9 mb - 0.00 in0.0 mm 0.00 in0.0 mm
04:55 PM 68.3°F20.2°C 54.8°F12.7°C 62% Calm Calm 1.2 mph1.9 kmh 30.03 in1016.9 mb - 0.00 in0.0 mm 0.00 in0.0 mm
05:00 PM 68.2°F20.1°C 54.7°F12.6°C 62% Calm Calm 1.2 mph1.9 kmh 30.03 in1016.9 mb - 0.00 in0.0 mm 0.00 in0.0 mm
05:05 PM 68.1°F20.1°C 54.6°F12.6°C 62% Calm Calm 1.2 mph1.9 kmh 30.03 in1016.9 mb - 0.00 in0.0 mm 0.00 in0.0 mm
05:10 PM 68.0°F20.0°C 54.9°F12.7°C 63% 1.2 mph N1.9 kmh N 1.2 mph1.9 kmh 30.03 in1016.9 mb - 0.00 in0.0 mm 0.00 in0.0 mm
05:15 PM 67.9°F19.9°C 54.8°F12.7°C 63% Calm Calm 1.2 mph1.9 kmh 30.03 in1016.9 mb - 0.00 in0.0 mm 0.00 in0.0 mm
05:20 PM 67.8°F19.9°C 55.2°F12.9°C 64% Calm Calm 1.2 mph1.9 kmh 30.03 in1016.9 mb - 0.00 in0.0 mm 0.00 in0.0 mm
05:25 PM 67.7°F19.8°C 55.0°F12.8°C 64% Calm Calm -- 30.03 in1016.9 mb - 0.00 in0.0 mm 0.00 in0.0 mm
05:30 PM 67.5°F19.7°C 55.3°F12.9°C 65% Calm Calm -- 30.03 in1016.9 mb - 0.00 in0.0 mm 0.00 in0.0 mm
05:35 PM 67.4°F19.7°C 54.8°F12.7°C 64% Calm Calm 1.2 mph1.9 kmh 30.03 in1016.9 mb - 0.00 in0.0 mm 0.00 in0.0 mm
05:40 PM 67.3°F19.6°C 55.1°F12.8°C 65% Calm Calm -- 30.02 in1016.6 mb - 0.00 in0.0 mm 0.00 in0.0 mm
05:45 PM 67.1°F19.5°C 55.0°F12.8°C 65% Calm Calm -- 30.03 in1016.9 mb - 0.00 in0.0 mm 0.00 in0.0 mm
05:50 PM 66.9°F19.4°C 54.7°F12.6°C 65% Calm Calm 1.2 mph1.9 kmh 30.03 in1016.9 mb - 0.00 in0.0 mm 0.00 in0.0 mm
05:55 PM 66.6°F19.2°C 54.0°F12.2°C 64% Calm Calm 1.2 mph1.9 kmh 30.03 in1016.9 mb - 0.00 in0.0 mm 0.00 in0.0 mm
06:00 PM 66.3°F19.1°C 53.3°F11.8°C 63% Calm Calm 1.2 mph1.9 kmh 30.03 in1016.9 mb - 0.00 in0.0 mm 0.00 in0.0 mm
06:05 PM 66.0°F18.9°C 53.5°F11.9°C 64% Calm Calm 1.2 mph1.9 kmh 30.03 in1016.9 mb - 0.00 in0.0 mm 0.00 in0.0 mm
06:10 PM 65.7°F18.7°C 53.6°F12.0°C 65% Calm Calm 1.2 mph1.9 kmh 30.02 in1016.6 mb - 0.00 in0.0 mm 0.00 in0.0 mm
06:15 PM 65.4°F18.6°C 53.4°F11.9°C 65% Calm Calm -- 30.02 in1016.6 mb - 0.00 in0.0 mm 0.00 in0.0 mm
06:20 PM 65.1°F18.4°C 53.5°F11.9°C 66% Calm Calm -- 30.02 in1016.6 mb - 0.00 in0.0 mm 0.00 in0.0 mm
06:25 PM 64.8°F18.2°C 52.8°F11.6°C 65% Calm Calm -- 30.02 in1016.6 mb - 0.00 in0.0 mm 0.00 in0.0 mm
06:30 PM 64.5°F18.1°C 52.9°F11.6°C 66% Calm Calm 1.2 mph1.9 kmh 30.03 in1016.9 mb - 0.00 in0.0 mm 0.00 in0.0 mm
06:35 PM 64.3°F17.9°C 53.1°F11.7°C 67% Calm Calm -- 30.03 in1016.9 mb - 0.00 in0.0 mm 0.00 in0.0 mm
06:40 PM 64.0°F17.8°C 52.8°F11.6°C 67% Calm Calm -- 30.03 in1016.9 mb - 0.00 in0.0 mm 0.00 in0.0 mm
06:45 PM 63.7°F17.6°C 52.9°F11.6°C 68% Calm Calm -- 30.03 in1016.9 mb - 0.00 in0.0 mm 0.00 in0.0 mm
06:50 PM 63.4°F17.4°C 53.1°F11.7°C 69% Calm Calm -- 30.03 in1016.9 mb - 0.00 in0.0 mm 0.00 in0.0 mm
06:55 PM 63.3°F17.4°C 52.9°F11.6°C 69% Calm Calm -- 30.03 in1016.9 mb - 0.00 in0.0 mm 0.00 in0.0 mm
07:00 PM 63.2°F17.3°C 52.8°F11.6°C 69% Calm Calm -- 30.03 in1016.9 mb - 0.00 in0.0 mm 0.00 in0.0 mm
07:05 PM 63.1°F17.3°C 52.7°F11.5°C 69% Calm Calm -- 30.03 in1016.9 mb - 0.00 in0.0 mm 0.00 in0.0 mm
07:10 PM 63.0°F17.2°C 52.7°F11.5°C 69% Calm Calm -- 30.03 in1016.9 mb - 0.00 in0.0 mm 0.00 in0.0 mm
07:15 PM 63.1°F17.3°C 52.8°F11.6°C 69% Calm Calm -- 30.03 in1016.9 mb - 0.00 in0.0 mm 0.00 in0.0 mm
07:20 PM 63.3°F17.4°C 53.3°F11.8°C 70% Calm Calm -- 30.03 in1016.9 mb - 0.00 in0.0 mm 0.00 in0.0 mm
07:25 PM 63.2°F17.3°C 53.3°F11.8°C 70% Calm Calm -- 30.04 in1017.3 mb - 0.00 in0.0 mm 0.00 in0.0 mm
07:30 PM 63.3°F17.4°C 53.3°F11.8°C 70% Calm Calm -- 30.03 in1016.9 mb - 0.00 in0.0 mm 0.00 in0.0 mm
07:35 PM 63.5°F17.5°C 53.1°F11.7°C 69% Calm Calm -- 30.04 in1017.3 mb - 0.00 in0.0 mm 0.00 in0.0 mm
07:40 PM 63.8°F17.7°C 53.0°F11.7°C 68% Calm Calm -- 30.04 in1017.3 mb - 0.00 in0.0 mm 0.00 in0.0 mm
07:45 PM 63.9°F17.7°C 53.1°F11.7°C 68% Calm Calm -- 30.03 in1016.9 mb - 0.00 in0.0 mm 0.00 in0.0 mm
07:50 PM 64.1°F17.8°C 53.3°F11.8°C 68% Calm Calm -- 30.03 in1016.9 mb - 0.00 in0.0 mm 0.00 in0.0 mm
07:55 PM 64.2°F17.9°C 53.4°F11.9°C 68% Calm Calm -- 30.03 in1016.9 mb - 0.00 in0.0 mm 0.00 in0.0 mm
08:00 PM 64.2°F17.9°C 53.0°F11.7°C 67% Calm Calm -- 30.03 in1016.9 mb - 0.00 in0.0 mm 0.00 in0.0 mm
08:05 PM 64.1°F17.8°C 53.4°F11.9°C 68% Calm Calm -- 30.03 in1016.9 mb - 0.00 in0.0 mm 0.00 in0.0 mm
08:10 PM 64.1°F17.8°C 53.3°F11.8°C 68% Calm Calm -- 30.04 in1017.3 mb - 0.00 in0.0 mm 0.00 in0.0 mm
08:15 PM 63.9°F17.7°C 53.1°F11.7°C 68% Calm Calm -- 30.03 in1016.9 mb - 0.00 in0.0 mm 0.00 in0.0 mm
08:20 PM 63.7°F17.6°C 53.3°F11.8°C 69% Calm Calm -- 30.03 in1016.9 mb - 0.00 in0.0 mm 0.00 in0.0 mm
08:25 PM 63.4°F17.4°C 53.0°F11.7°C 69% Calm Calm -- 30.03 in1016.9 mb - 0.00 in0.0 mm 0.00 in0.0 mm
08:30 PM 63.0°F17.2°C 53.1°F11.7°C 70% Calm Calm -- 30.03 in1016.9 mb - 0.00 in0.0 mm 0.00 in0.0 mm
08:35 PM 62.6°F17.0°C 53.5°F11.9°C 72% Calm Calm -- 30.04 in1017.3 mb - 0.00 in0.0 mm 0.00 in0.0 mm
08:40 PM 62.2°F16.8°C 52.3°F11.3°C 70% Calm Calm -- 30.04 in1017.3 mb - 0.00 in0.0 mm 0.00 in0.0 mm
08:45 PM 62.4°F16.9°C 52.1°F11.2°C 69% Calm Calm -- 30.04 in1017.3 mb - 0.00 in0.0 mm 0.00 in0.0 mm
08:50 PM 62.4°F16.9°C 52.1°F11.2°C 69% Calm Calm 1.2 mph1.9 kmh 30.04 in1017.3 mb - 0.00 in0.0 mm 0.00 in0.0 mm
08:55 PM 62.3°F16.8°C 51.6°F10.9°C 68% Calm Calm -- 30.04 in1017.3 mb - 0.00 in0.0 mm 0.00 in0.0 mm
09:00 PM 62.2°F16.8°C 51.1°F10.6°C 67% Calm Calm -- 30.04 in1017.3 mb - 0.00 in0.0 mm 0.00 in0.0 mm
09:05 PM 62.0°F16.7°C 50.9°F10.5°C 67% Calm Calm -- 30.04 in1017.3 mb - 0.00 in0.0 mm 0.00 in0.0 mm
09:10 PM 61.7°F16.5°C 51.0°F10.6°C 68% Calm Calm -- 30.04 in1017.3 mb - 0.00 in0.0 mm 0.00 in0.0 mm
09:15 PM 61.3°F16.3°C 50.7°F10.4°C 68% Calm Calm -- 30.04 in1017.3 mb - 0.00 in0.0 mm 0.00 in0.0 mm
09:20 PM 60.9°F16.1°C 50.3°F10.2°C 68% Calm Calm -- 30.05 in1017.6 mb - 0.00 in0.0 mm 0.00 in0.0 mm
09:25 PM 60.6°F15.9°C 50.0°F10.0°C 68% Calm Calm -- 30.05 in1017.6 mb - 0.00 in0.0 mm 0.00 in0.0 mm
09:30 PM 60.2°F15.7°C 49.6°F9.8°C 68% Calm Calm -- 30.05 in1017.6 mb - 0.00 in0.0 mm 0.00 in0.0 mm
09:35 PM 60.1°F15.6°C 49.9°F9.9°C 69% Calm Calm -- 30.05 in1017.6 mb - 0.00 in0.0 mm 0.00 in0.0 mm
09:40 PM 59.8°F15.4°C 49.6°F9.8°C 69% Calm Calm -- 30.05 in1017.6 mb - 0.00 in0.0 mm 0.00 in0.0 mm
09:45 PM 59.4°F15.2°C 49.3°F9.6°C 69% Calm Calm -- 30.05 in1017.6 mb - 0.00 in0.0 mm 0.00 in0.0 mm
09:50 PM 59.0°F15.0°C 49.2°F9.6°C 70% Calm Calm -- 30.05 in1017.6 mb - 0.00 in0.0 mm 0.00 in0.0 mm
09:55 PM 58.6°F14.8°C 49.2°F9.6°C 71% Calm Calm -- 30.05 in1017.6 mb - 0.00 in0.0 mm 0.00 in0.0 mm
10:00 PM 58.2°F14.6°C 49.2°F9.6°C 72% Calm Calm -- 30.05 in1017.6 mb - 0.00 in0.0 mm 0.00 in0.0 mm
10:05 PM 57.8°F14.3°C 48.8°F9.3°C 72% Calm Calm -- 30.05 in1017.6 mb - 0.00 in0.0 mm 0.00 in0.0 mm
10:10 PM 57.4°F14.1°C 49.2°F9.6°C 74% Calm Calm -- 30.05 in1017.6 mb - 0.00 in0.0 mm 0.00 in0.0 mm
10:15 PM 57.2°F14.0°C 49.0°F9.4°C 74% Calm Calm -- 30.05 in1017.6 mb - 0.00 in0.0 mm 0.00 in0.0 mm
10:20 PM 57.1°F13.9°C 49.2°F9.6°C 75% Calm Calm -- 30.05 in1017.6 mb - 0.00 in0.0 mm 0.00 in0.0 mm
10:25 PM 56.9°F13.8°C 48.7°F9.3°C 74% Calm Calm -- 30.05 in1017.6 mb - 0.00 in0.0 mm 0.00 in0.0 mm
10:30 PM 56.8°F13.8°C 48.2°F9.0°C 73% Calm Calm -- 30.05 in1017.6 mb - 0.00 in0.0 mm 0.00 in0.0 mm
10:35 PM 56.7°F13.7°C 48.5°F9.2°C 74% Calm Calm -- 30.05 in1017.6 mb - 0.00 in0.0 mm 0.00 in0.0 mm
10:40 PM 56.4°F13.6°C 48.6°F9.2°C 75% Calm Calm -- 30.05 in1017.6 mb - 0.00 in0.0 mm 0.00 in0.0 mm
10:45 PM 56.1°F13.4°C 48.3°F9.1°C 75% Calm Calm -- 30.05 in1017.6 mb - 0.00 in0.0 mm 0.00 in0.0 mm
10:50 PM 55.8°F13.2°C 48.3°F9.1°C 76% Calm Calm -- 30.04 in1017.3 mb - 0.00 in0.0 mm 0.00 in0.0 mm
10:55 PM 55.4°F13.0°C 48.0°F8.9°C 76% Calm Calm -- 30.04 in1017.3 mb - 0.00 in0.0 mm 0.00 in0.0 mm
11:00 PM 55.1°F12.8°C 48.0°F8.9°C 77% Calm Calm -- 30.04 in1017.3 mb - 0.00 in0.0 mm 0.00 in0.0 mm
11:05 PM 54.8°F12.7°C 48.1°F8.9°C 78% Calm Calm -- 30.04 in1017.3 mb - 0.00 in0.0 mm 0.00 in0.0 mm
11:10 PM 54.7°F12.6°C 48.3°F9.1°C 79% Calm Calm -- 30.04 in1017.3 mb - 0.00 in0.0 mm 0.00 in0.0 mm
11:15 PM 54.6°F12.6°C 48.6°F9.2°C 80% Calm Calm -- 30.04 in1017.3 mb - 0.00 in0.0 mm 0.00 in0.0 mm
11:20 PM 54.4°F12.4°C 48.3°F9.1°C 80% Calm Calm -- 30.04 in1017.3 mb - 0.00 in0.0 mm 0.00 in0.0 mm
11:25 PM 54.1°F12.3°C 48.4°F9.1°C 81% Calm Calm -- 30.04 in1017.3 mb - 0.00 in0.0 mm 0.00 in0.0 mm
11:30 PM 53.8°F12.1°C 48.1°F8.9°C 81% Calm Calm -- 30.04 in1017.3 mb - 0.00 in0.0 mm 0.00 in0.0 mm
11:35 PM 53.4°F11.9°C 47.7°F8.7°C 81% Calm Calm -- 30.04 in1017.3 mb - 0.00 in0.0 mm 0.00 in0.0 mm
11:40 PM 53.2°F11.8°C 47.5°F8.6°C 81% Calm Calm -- 30.03 in1016.9 mb - 0.00 in0.0 mm 0.00 in0.0 mm
11:45 PM 53.2°F11.8°C 47.8°F8.8°C 82% Calm Calm -- 30.04 in1017.3 mb - 0.00 in0.0 mm 0.00 in0.0 mm
11:50 PM 53.0°F11.7°C 47.3°F8.5°C 81% Calm Calm -- 30.04 in1017.3 mb - 0.00 in0.0 mm 0.00 in0.0 mm
11:55 PM 52.9°F11.6°C 47.6°F8.7°C 82% Calm Calm -- 30.04 in1017.3 mb - 0.00 in0.0 mm 0.00 in0.0 mm